METAR AND TAF INFORMATION
METAR FOR VDPP
ADDS - METARS form results

(0543 UTC 28 October 2020)
Data provider http://aviationweather.gov/metar/data/
 
METAR text: VDPP 280530Z 30005KT 260V340 9999 SCT015 SCT040 30/21 Q1005
Conditions at: VDPP (PHNOM-PENH/POCHE, KH) observed 0530 UTC 28 October 2020
Temperature: 30.0°C (86°F)
Dewpoint: 21.0°C (70°F) [RH = 59%]
Pressure (altimeter): 29.68 inches Hg (1005.0 mb)
Winds: from the WNW (300 degrees) at 6 MPH (5 knots; 2.6 m/s)
Visibility: 6 or more miles (10+ km)
Ceiling: at least 12,000 feet AGL
Clouds: scattered clouds at 1500 feet AGL
scattered clouds at 4000 feet AGL
Weather: no significant weather observed at this time

METAR text: VDPP 280500Z 33005KT 280V340 9999 SCT015 SCT040 30/22 Q1006
Conditions at: VDPP (PHNOM-PENH/POCHE, KH) observed 0500 UTC 28 October 2020
Temperature: 30.0°C (86°F)
Dewpoint: 22.0°C (72°F) [RH = 62%]
Pressure (altimeter): 29.70 inches Hg (1006.0 mb)
Winds: from the NNW (330 degrees) at 6 MPH (5 knots; 2.6 m/s)
Visibility: 6 or more miles (10+ km)
Ceiling: at least 12,000 feet AGL
Clouds: scattered clouds at 1500 feet AGL
scattered clouds at 4000 feet AGL
Weather: no significant weather observed at this time

Forecast for: VDPP (PHNOM-PENH/POCHE, KH)
Text: TAF VDPP 280500Z 2806/2824 29010KT 9999 SCT017 SCT040
Forecast period: 0600 UTC 28 October 2020 to 0000 UTC 29 October 2020
Forecast type: FROM: standard forecast or significant change
Winds: from the WNW (290 degrees) at 12 MPH (10 knots; 5.1 m/s)
Visibility: 6 or more miles (10+ km)
Ceiling: at least 12,000 feet AGL
Clouds: scattered clouds at 1700 feet AGL
scattered clouds at 4000 feet AGL
Weather: no significant weather forecast for this period
Text: TEMPO 2807/2812 SCT015 FEW017CB
Forecast period: 0700 to 1200 UTC 28 October 2020
Forecast type: TEMPORARY: The following changes expected for less than half the time period
Visibility: missing
Ceiling: at least 12,000 feet AGL
Clouds: scattered clouds at 1500 feet AGL
few clouds at 1700 feet AGL
Weather: no significant weather forecast for this period

 AIRPORT MAP

 RUNWAY INFORMATION

 AIRPORT FREQUENCIES
Type ACC Name ACC Frequency 127.5 MHZ
Type APP Name APP Frequency 123.8 MHZ
Type ATIS Name ATIS Frequency 127.25 MHZ
Type TWR Name TWR Frequency 118 MHZ

 AIRPORT NEAR NAVIGATION AIDS
Type VOR-DME Name Phnom Penh Frequency 114300 KHZ
Type NDB Name Phnom Penh Frequency 376 KHZ



2018 Air Astana Virtual Airline